Jena, Louisiana
Current Conditions -  °F | °C
As of 11:53 PM on Wednesday 17 Dec 2014 (Local Time) from KESF Reporting Station
Broken Clouds Broken Clouds  
Wind Chill: 49°   Ceiling: 9500
Heat Index: 49°   Visibility: 10mi
Dew Point: 42°   Wind: 0mph
Humidity: 77%   Direction: NA
Pressure: 30.18"   Gusts: NA
Location:  31.68°N, 92.13°W
Report Text: KESF 180553Z AUTO 00000KT 10SM BKN095 09/06 A3018 RMK AO2 SLP220 T00940056 10094 20072 401440000 50006
Loading
Personal Weather Stations






























Interactive Weather Map New forecast layout! Learn more

10-Day Weather Forecast

Advertisements
Track Severe Weather on mobile